Observations for VALLEY RAF, United Kingdom (EGOV)

EGOV 180250Z AUTO 15009KT 9999 BKN024/// 07/07 Q1018
EGOV 180150Z AUTO 13007KT 9999 BKN025/// SCT060/// 07/06 Q1019  
EGOV 180050Z AUTO 15006KT 9999 BKN030/// SCT050/// 07/06 Q1019 RERA 
EGOV 172350Z AUTO 15008KT 9999 SCT009/// BKN050/// 07/06 Q1019  
EGOV 172250Z AUTO 14008KT 9999 SCT011/// 06/06 Q1019
EGOV 172150Z AUTO 16009KT 9999 NCD 06/06 Q1019  
EGOV 172050Z AUTO 18009KT 9999 NCD 06/06 Q1019  
EGOV 171950Z AUTO 17010KT 9999 NCD 06/06 Q1019  
EGOV 171850Z AUTO 16009KT 9999 NCD 06/06 Q1019  
EGOV 171750Z AUTO 18010KT 9999 SCT050/// 07/06 Q1019
EGOV 171650Z AUTO 18009KT 9999 NCD 07/06 Q1018  
EGOV 171550Z AUTO 19010KT 9999 NCD 08/07 Q1018  
EGOV 171450Z AUTO 21010KT 9999 NCD 08/05 Q1018  
EGOV 171350Z AUTO 21013KT 9999 NCD 09/06 Q1019  
EGOV 171250Z AUTO 20010KT 9999 NCD 08/06 Q1019  
EGOV 171150Z AUTO 21011KT 9999 NCD 08/06 Q1019  
EGOV 171050Z AUTO 22011KT 9999 FEW043/// 08/06 Q1019
EGOV 170950Z AUTO 21010KT 9999 FEW030/// BKN046/// 07/06 Q1018  
EGOV 170850Z AUTO 20008KT 9999 NCD 06/05 Q1018  
EGOV 170750Z AUTO 23005KT 6000 BR NCD 04/04 Q1017   
EGOV 170650Z AUTO 24008KT 9999 SCT023/// 05/04 Q1017
EGOV 170550Z AUTO 24009KT 6000 BR SCT005/// BKN015/// 06/06 Q1016 RERA  
EGOV 170450Z AUTO 16013KT 6000 -RA BKN014/// 06/05 Q1016
EGOV 170350Z AUTO 17020KT 6000 RA SCT013/// BKN021/// 06/05 Q1017   
EGOV 170250Z AUTO 18020KT 8000 RA BKN018/// 06/04 Q1017